Lynn Lake Airport
CYYL : now visible

Airfield :











YOU CAN JOIN US ON...

 
LOGIN :

Register | Disclaimer

   EN    FR    IT 

 









Legend :    VFR   Marginal VFR   IFR   Intensive IFR   Very Intensive IFR
Visi :
Ceiling :
>= 8 km
>= 3000ft
5 to 8 km
1000 to 3000 ft
1500m to 5 km
500 to 1000 ft
800 to 1500m
200 to 500 ft
< 800m
< 200 ft
Symbols :   Thunderstorms  Fog  Heavy snow  Heavy precipitations  Wind > 20 kt







- Airport Elevation : 1170 ft
- IATA code : YYL


CYYL - Lynn Lake

CURRENT METAR :
  • 210000Z AUTO 28005KT 210V310 9SM CLR 19/M03 A3007 RMK SLP196 DENSITY ALT 1700FT

EXPIRED METARs :
  • 202300Z AUTO 23008KT 150V280 9SM CLR 19/M02 A3008 RMK SLP201 DENSITY ALT 1700FT
  • 202200Z AUTO 23008KT 140V250 9SM CLR 19/M02 A3009 RMK SLP205 DENSITY ALT 1700FT

TAF TAF CYYL
Valid from the 20 at 19:00 until the 21 at 07:00 UTC


201838Z 2019/2107 VRB03KT P6SM SCT120
BECMG 2019/2021 23008KT
FM210100 20005KT P6SM SKC RMK FCST BASED ON AUTO OBS. NXT FCST BY 210100Z
CZWG FIR / North America



MET'MAP, your aeronautical weather chart ! - Copyright ORBIFLY December 2007 - Disclaimer

ORBIFLY MET'MAP TEAM :

Programming & Development : Alexandra Zaïnal
Concept & Development : Baudouin d'Aumeries
Co-Development & Prog : Marc-Olivier Méhu
Technical & hardware support : Manuel Goepfert

Contact : metmap@orbifly.com




SOURCES & CREDITS :

   NOAA       Earth
Advisory